sensor_id;sensor_type;location;lat;lon;timestamp;P1;durP1;ratioP1;P2;durP2;ratioP2
8213;SDS011;4148;47.974;7.824;2024-02-16T00:01:13;5.83;;;3.83;;
8213;SDS011;4148;47.974;7.824;2024-02-16T00:03:41;10.57;;;3.80;;
8213;SDS011;4148;47.974;7.824;2024-02-16T00:06:09;8.00;;;3.17;;
8213;SDS011;4148;47.974;7.824;2024-02-16T00:08:38;6.60;;;3.10;;
8213;SDS011;4148;47.974;7.824;2024-02-16T00:11:07;4.87;;;2.73;;
8213;SDS011;4148;47.974;7.824;2024-02-16T00:13:36;3.50;;;2.70;;
8213;SDS011;4148;47.974;7.824;2024-02-16T00:16:04;5.40;;;2.87;;
8213;SDS011;4148;47.974;7.824;2024-02-16T00:18:32;3.87;;;2.53;;
8213;SDS011;4148;47.974;7.824;2024-02-16T00:21:00;3.83;;;2.40;;
8213;SDS011;4148;47.974;7.824;2024-02-16T00:23:29;3.83;;;2.30;;
8213;SDS011;4148;47.974;7.824;2024-02-16T00:25:57;4.30;;;1.87;;
8213;SDS011;4148;47.974;7.824;2024-02-16T00:28:26;4.73;;;1.90;;
8213;SDS011;4148;47.974;7.824;2024-02-16T00:30:54;2.53;;;1.83;;
8213;SDS011;4148;47.974;7.824;2024-02-16T00:33:22;3.67;;;1.60;;
8213;SDS011;4148;47.974;7.824;2024-02-16T00:35:50;3.23;;;2.00;;
8213;SDS011;4148;47.974;7.824;2024-02-16T00:38:19;3.50;;;1.90;;
8213;SDS011;4148;47.974;7.824;2024-02-16T00:40:47;2.90;;;1.73;;
8213;SDS011;4148;47.974;7.824;2024-02-16T00:43:15;4.80;;;2.10;;
8213;SDS011;4148;47.974;7.824;2024-02-16T00:45:45;2.60;;;1.87;;
8213;SDS011;4148;47.974;7.824;2024-02-16T00:48:14;2.97;;;2.07;;
8213;SDS011;4148;47.974;7.824;2024-02-16T00:50:42;2.90;;;1.90;;
8213;SDS011;4148;47.974;7.824;2024-02-16T00:53:10;5.80;;;1.97;;
8213;SDS011;4148;47.974;7.824;2024-02-16T00:55:38;2.67;;;1.80;;
8213;SDS011;4148;47.974;7.824;2024-02-16T00:58:08;3.30;;;2.20;;
8213;SDS011;4148;47.974;7.824;2024-02-16T01:00:36;3.77;;;2.70;;
8213;SDS011;4148;47.974;7.824;2024-02-16T01:03:05;2.80;;;2.10;;
8213;SDS011;4148;47.974;7.824;2024-02-16T01:05:33;6.20;;;2.70;;
8213;SDS011;4148;47.974;7.824;2024-02-16T01:08:02;3.90;;;2.80;;
8213;SDS011;4148;47.974;7.824;2024-02-16T01:10:30;4.77;;;2.60;;
8213;SDS011;4148;47.974;7.824;2024-02-16T01:12:58;3.50;;;3.00;;
8213;SDS011;4148;47.974;7.824;2024-02-16T01:15:26;3.60;;;3.00;;
8213;SDS011;4148;47.974;7.824;2024-02-16T01:17:54;4.83;;;2.97;;
8213;SDS011;4148;47.974;7.824;2024-02-16T01:20:23;6.00;;;2.80;;
8213;SDS011;4148;47.974;7.824;2024-02-16T01:22:51;3.63;;;2.67;;
8213;SDS011;4148;47.974;7.824;2024-02-16T01:25:19;2.67;;;2.30;;
8213;SDS011;4148;47.974;7.824;2024-02-16T01:27:47;3.73;;;2.60;;
8213;SDS011;4148;47.974;7.824;2024-02-16T01:30:15;2.70;;;1.77;;
8213;SDS011;4148;47.974;7.824;2024-02-16T01:32:44;2.80;;;1.80;;
8213;SDS011;4148;47.974;7.824;2024-02-16T01:35:13;3.20;;;2.03;;
8213;SDS011;4148;47.974;7.824;2024-02-16T01:37:43;2.80;;;1.90;;
8213;SDS011;4148;47.974;7.824;2024-02-16T01:40:11;2.83;;;1.67;;
8213;SDS011;4148;47.974;7.824;2024-02-16T01:42:40;3.03;;;1.70;;
8213;SDS011;4148;47.974;7.824;2024-02-16T01:45:09;2.30;;;1.87;;
8213;SDS011;4148;47.974;7.824;2024-02-16T01:47:38;3.50;;;2.23;;
8213;SDS011;4148;47.974;7.824;2024-02-16T01:50:09;4.20;;;2.30;;
8213;SDS011;4148;47.974;7.824;2024-02-16T01:52:37;3.37;;;2.00;;
8213;SDS011;4148;47.974;7.824;2024-02-16T01:55:07;2.97;;;2.13;;
8213;SDS011;4148;47.974;7.824;2024-02-16T01:57:36;3.50;;;1.80;;
8213;SDS011;4148;47.974;7.824;2024-02-16T02:00:06;3.00;;;1.90;;
8213;SDS011;4148;47.974;7.824;2024-02-16T02:02:34;3.27;;;1.90;;
8213;SDS011;4148;47.974;7.824;2024-02-16T02:05:03;3.30;;;1.40;;
8213;SDS011;4148;47.974;7.824;2024-02-16T02:07:32;4.00;;;2.00;;
8213;SDS011;4148;47.974;7.824;2024-02-16T02:10:00;2.87;;;2.03;;
8213;SDS011;4148;47.974;7.824;2024-02-16T02:12:30;2.43;;;1.77;;
8213;SDS011;4148;47.974;7.824;2024-02-16T02:14:59;2.93;;;1.93;;
8213;SDS011;4148;47.974;7.824;2024-02-16T02:17:27;2.47;;;1.70;;
8213;SDS011;4148;47.974;7.824;2024-02-16T02:19:55;3.70;;;1.90;;
8213;SDS011;4148;47.974;7.824;2024-02-16T02:22:24;3.30;;;1.80;;
8213;SDS011;4148;47.974;7.824;2024-02-16T02:24:53;2.77;;;1.90;;
8213;SDS011;4148;47.974;7.824;2024-02-16T02:27:22;3.90;;;1.80;;
8213;SDS011;4148;47.974;7.824;2024-02-16T02:29:50;3.67;;;1.77;;
8213;SDS011;4148;47.974;7.824;2024-02-16T02:32:18;4.50;;;1.97;;
8213;SDS011;4148;47.974;7.824;2024-02-16T02:34:46;3.70;;;2.00;;
8213;SDS011;4148;47.974;7.824;2024-02-16T02:37:14;2.90;;;1.90;;
8213;SDS011;4148;47.974;7.824;2024-02-16T02:39:43;2.37;;;1.80;;
8213;SDS011;4148;47.974;7.824;2024-02-16T02:42:11;4.83;;;1.90;;
8213;SDS011;4148;47.974;7.824;2024-02-16T02:44:39;2.57;;;1.73;;
8213;SDS011;4148;47.974;7.824;2024-02-16T02:47:08;3.30;;;1.80;;
8213;SDS011;4148;47.974;7.824;2024-02-16T02:49:36;2.73;;;1.70;;
8213;SDS011;4148;47.974;7.824;2024-02-16T02:52:04;3.70;;;1.93;;
8213;SDS011;4148;47.974;7.824;2024-02-16T02:54:32;3.03;;;1.70;;
8213;SDS011;4148;47.974;7.824;2024-02-16T02:57:03;2.70;;;1.70;;
8213;SDS011;4148;47.974;7.824;2024-02-16T02:59:31;4.53;;;2.03;;
8213;SDS011;4148;47.974;7.824;2024-02-16T03:01:59;2.30;;;1.63;;
8213;SDS011;4148;47.974;7.824;2024-02-16T03:04:27;3.47;;;1.80;;
8213;SDS011;4148;47.974;7.824;2024-02-16T03:06:55;2.57;;;1.80;;
8213;SDS011;4148;47.974;7.824;2024-02-16T03:09:23;2.40;;;1.80;;
8213;SDS011;4148;47.974;7.824;2024-02-16T03:11:51;2.20;;;1.60;;
8213;SDS011;4148;47.974;7.824;2024-02-16T03:14:20;4.60;;;1.73;;
8213;SDS011;4148;47.974;7.824;2024-02-16T03:16:48;2.00;;;1.70;;
8213;SDS011;4148;47.974;7.824;2024-02-16T03:19:16;2.43;;;1.73;;
8213;SDS011;4148;47.974;7.824;2024-02-16T03:21:46;2.87;;;1.53;;
8213;SDS011;4148;47.974;7.824;2024-02-16T03:24:14;3.80;;;1.90;;
8213;SDS011;4148;47.974;7.824;2024-02-16T03:26:42;3.40;;;1.70;;
8213;SDS011;4148;47.974;7.824;2024-02-16T03:29:10;2.67;;;1.80;;
8213;SDS011;4148;47.974;7.824;2024-02-16T03:31:39;3.07;;;1.87;;
8213;SDS011;4148;47.974;7.824;2024-02-16T03:34:07;2.77;;;1.53;;
8213;SDS011;4148;47.974;7.824;2024-02-16T03:36:35;2.60;;;1.83;;
8213;SDS011;4148;47.974;7.824;2024-02-16T03:39:03;2.20;;;1.60;;
8213;SDS011;4148;47.974;7.824;2024-02-16T03:41:32;4.10;;;1.83;;
8213;SDS011;4148;47.974;7.824;2024-02-16T03:44:00;2.80;;;1.50;;
8213;SDS011;4148;47.974;7.824;2024-02-16T03:46:28;3.40;;;1.70;;
8213;SDS011;4148;47.974;7.824;2024-02-16T03:48:57;3.00;;;1.90;;
8213;SDS011;4148;47.974;7.824;2024-02-16T03:51:26;3.53;;;1.73;;
8213;SDS011;4148;47.974;7.824;2024-02-16T03:53:54;2.93;;;1.60;;
8213;SDS011;4148;47.974;7.824;2024-02-16T03:56:22;6.73;;;1.87;;
8213;SDS011;4148;47.974;7.824;2024-02-16T03:58:49;4.03;;;1.97;;
8213;SDS011;4148;47.974;7.824;2024-02-16T04:01:17;2.93;;;1.87;;
8213;SDS011;4148;47.974;7.824;2024-02-16T04:03:45;3.10;;;1.67;;
8213;SDS011;4148;47.974;7.824;2024-02-16T04:06:14;2.93;;;1.90;;
8213;SDS011;4148;47.974;7.824;2024-02-16T04:08:42;4.43;;;1.97;;
8213;SDS011;4148;47.974;7.824;2024-02-16T04:11:10;4.13;;;2.10;;
8213;SDS011;4148;47.974;7.824;2024-02-16T04:13:39;2.37;;;1.90;;
8213;SDS011;4148;47.974;7.824;2024-02-16T04:16:07;2.80;;;1.83;;
8213;SDS011;4148;47.974;7.824;2024-02-16T04:18:35;3.13;;;1.97;;
8213;SDS011;4148;47.974;7.824;2024-02-16T04:21:03;2.80;;;2.03;;
8213;SDS011;4148;47.974;7.824;2024-02-16T04:23:33;2.53;;;2.10;;
8213;SDS011;4148;47.974;7.824;2024-02-16T04:26:00;3.90;;;2.50;;
8213;SDS011;4148;47.974;7.824;2024-02-16T04:28:28;3.60;;;2.40;;
8213;SDS011;4148;47.974;7.824;2024-02-16T04:30:56;5.33;;;2.30;;
8213;SDS011;4148;47.974;7.824;2024-02-16T04:33:24;4.17;;;2.00;;
8213;SDS011;4148;47.974;7.824;2024-02-16T04:35:52;2.60;;;1.93;;
8213;SDS011;4148;47.974;7.824;2024-02-16T04:38:20;3.63;;;1.93;;
8213;SDS011;4148;47.974;7.824;2024-02-16T04:40:49;2.00;;;1.60;;
8213;SDS011;4148;47.974;7.824;2024-02-16T04:43:17;3.77;;;2.10;;
8213;SDS011;4148;47.974;7.824;2024-02-16T04:45:45;2.40;;;1.50;;
8213;SDS011;4148;47.974;7.824;2024-02-16T04:48:13;3.80;;;1.90;;
8213;SDS011;4148;47.974;7.824;2024-02-16T04:50:41;2.20;;;1.60;;
8213;SDS011;4148;47.974;7.824;2024-02-16T04:53:09;6.40;;;1.80;;
8213;SDS011;4148;47.974;7.824;2024-02-16T04:55:37;3.87;;;1.80;;
8213;SDS011;4148;47.974;7.824;2024-02-16T04:58:06;2.67;;;1.70;;
8213;SDS011;4148;47.974;7.824;2024-02-16T05:00:36;1.93;;;1.50;;
8213;SDS011;4148;47.974;7.824;2024-02-16T05:03:04;2.90;;;1.93;;
8213;SDS011;4148;47.974;7.824;2024-02-16T05:05:33;3.53;;;2.03;;
8213;SDS011;4148;47.974;7.824;2024-02-16T05:08:01;2.87;;;1.90;;
8213;SDS011;4148;47.974;7.824;2024-02-16T05:10:29;2.80;;;1.63;;
8213;SDS011;4148;47.974;7.824;2024-02-16T05:12:57;5.03;;;1.70;;
8213;SDS011;4148;47.974;7.824;2024-02-16T05:15:27;2.60;;;1.90;;
8213;SDS011;4148;47.974;7.824;2024-02-16T05:17:55;2.80;;;2.20;;
8213;SDS011;4148;47.974;7.824;2024-02-16T05:20:24;3.80;;;2.10;;
8213;SDS011;4148;47.974;7.824;2024-02-16T05:22:52;2.87;;;2.23;;
8213;SDS011;4148;47.974;7.824;2024-02-16T05:25:20;5.80;;;2.40;;
8213;SDS011;4148;47.974;7.824;2024-02-16T05:27:48;4.23;;;2.40;;
8213;SDS011;4148;47.974;7.824;2024-02-16T05:30:16;3.67;;;2.50;;
8213;SDS011;4148;47.974;7.824;2024-02-16T05:32:45;3.93;;;2.23;;
8213;SDS011;4148;47.974;7.824;2024-02-16T05:35:15;2.30;;;1.80;;
8213;SDS011;4148;47.974;7.824;2024-02-16T05:37:44;4.30;;;2.60;;
8213;SDS011;4148;47.974;7.824;2024-02-16T05:40:15;4.53;;;2.20;;
8213;SDS011;4148;47.974;7.824;2024-02-16T05:42:50;3.10;;;2.20;;
8213;SDS011;4148;47.974;7.824;2024-02-16T05:45:19;4.20;;;2.07;;
8213;SDS011;4148;47.974;7.824;2024-02-16T05:47:50;3.13;;;2.23;;
8213;SDS011;4148;47.974;7.824;2024-02-16T05:50:19;3.33;;;2.40;;
8213;SDS011;4148;47.974;7.824;2024-02-16T05:52:49;3.83;;;2.53;;
8213;SDS011;4148;47.974;7.824;2024-02-16T05:55:18;3.17;;;2.50;;
8213;SDS011;4148;47.974;7.824;2024-02-16T05:57:46;3.10;;;2.40;;
8213;SDS011;4148;47.974;7.824;2024-02-16T06:00:14;2.53;;;2.27;;
8213;SDS011;4148;47.974;7.824;2024-02-16T06:02:43;4.67;;;2.90;;
8213;SDS011;4148;47.974;7.824;2024-02-16T06:05:12;5.70;;;2.67;;
8213;SDS011;4148;47.974;7.824;2024-02-16T06:07:40;2.93;;;2.27;;
8213;SDS011;4148;47.974;7.824;2024-02-16T06:10:08;3.53;;;2.00;;
8213;SDS011;4148;47.974;7.824;2024-02-16T06:12:38;3.27;;;2.30;;
8213;SDS011;4148;47.974;7.824;2024-02-16T06:15:07;4.60;;;2.30;;
8213;SDS011;4148;47.974;7.824;2024-02-16T06:17:35;5.07;;;2.27;;
8213;SDS011;4148;47.974;7.824;2024-02-16T06:20:04;4.33;;;2.20;;
8213;SDS011;4148;47.974;7.824;2024-02-16T06:22:37;5.70;;;2.63;;
8213;SDS011;4148;47.974;7.824;2024-02-16T06:25:05;3.53;;;2.40;;
8213;SDS011;4148;47.974;7.824;2024-02-16T06:27:33;3.93;;;2.50;;
8213;SDS011;4148;47.974;7.824;2024-02-16T06:30:01;5.63;;;2.63;;
8213;SDS011;4148;47.974;7.824;2024-02-16T06:32:30;4.97;;;2.90;;
8213;SDS011;4148;47.974;7.824;2024-02-16T06:34:58;4.23;;;2.80;;
8213;SDS011;4148;47.974;7.824;2024-02-16T06:37:26;4.50;;;2.87;;
8213;SDS011;4148;47.974;7.824;2024-02-16T06:39:55;3.83;;;2.90;;
8213;SDS011;4148;47.974;7.824;2024-02-16T06:42:23;3.60;;;3.13;;
8213;SDS011;4148;47.974;7.824;2024-02-16T06:44:51;4.60;;;2.73;;
8213;SDS011;4148;47.974;7.824;2024-02-16T06:47:19;3.80;;;2.77;;
8213;SDS011;4148;47.974;7.824;2024-02-16T06:49:49;4.63;;;2.40;;
8213;SDS011;4148;47.974;7.824;2024-02-16T06:52:17;4.07;;;2.83;;
8213;SDS011;4148;47.974;7.824;2024-02-16T06:54:45;3.73;;;2.13;;
8213;SDS011;4148;47.974;7.824;2024-02-16T06:57:15;3.63;;;2.43;;
8213;SDS011;4148;47.974;7.824;2024-02-16T06:59:42;5.33;;;2.90;;
8213;SDS011;4148;47.974;7.824;2024-02-16T07:02:10;6.03;;;3.93;;
8213;SDS011;4148;47.974;7.824;2024-02-16T07:04:39;10.30;;;4.13;;
8213;SDS011;4148;47.974;7.824;2024-02-16T07:07:07;7.80;;;4.50;;
8213;SDS011;4148;47.974;7.824;2024-02-16T07:09:35;4.53;;;3.50;;
8213;SDS011;4148;47.974;7.824;2024-02-16T07:12:06;6.17;;;3.70;;
8213;SDS011;4148;47.974;7.824;2024-02-16T07:14:36;5.43;;;3.43;;
8213;SDS011;4148;47.974;7.824;2024-02-16T07:17:04;7.00;;;2.37;;
8213;SDS011;4148;47.974;7.824;2024-02-16T07:19:35;3.27;;;2.00;;
8213;SDS011;4148;47.974;7.824;2024-02-16T07:22:04;3.60;;;1.97;;
8213;SDS011;4148;47.974;7.824;2024-02-16T07:24:33;4.23;;;1.70;;
8213;SDS011;4148;47.974;7.824;2024-02-16T07:27:01;3.93;;;2.10;;
8213;SDS011;4148;47.974;7.824;2024-02-16T07:29:29;4.00;;;2.03;;
8213;SDS011;4148;47.974;7.824;2024-02-16T07:31:59;2.63;;;1.90;;
8213;SDS011;4148;47.974;7.824;2024-02-16T07:34:27;6.27;;;3.80;;
8213;SDS011;4148;47.974;7.824;2024-02-16T07:36:55;6.10;;;2.90;;
8213;SDS011;4148;47.974;7.824;2024-02-16T07:39:24;4.00;;;2.00;;
8213;SDS011;4148;47.974;7.824;2024-02-16T07:41:52;3.90;;;1.70;;
8213;SDS011;4148;47.974;7.824;2024-02-16T07:44:20;2.17;;;1.70;;
8213;SDS011;4148;47.974;7.824;2024-02-16T07:46:48;3.07;;;1.90;;
8213;SDS011;4148;47.974;7.824;2024-02-16T07:49:18;3.13;;;1.97;;
8213;SDS011;4148;47.974;7.824;2024-02-16T07:51:46;4.50;;;2.20;;
8213;SDS011;4148;47.974;7.824;2024-02-16T07:54:14;2.93;;;1.70;;
8213;SDS011;4148;47.974;7.824;2024-02-16T07:56:43;2.30;;;1.70;;
8213;SDS011;4148;47.974;7.824;2024-02-16T07:59:10;5.73;;;2.07;;
8213;SDS011;4148;47.974;7.824;2024-02-16T08:01:39;3.80;;;1.97;;
8213;SDS011;4148;47.974;7.824;2024-02-16T08:04:07;2.80;;;1.93;;
8213;SDS011;4148;47.974;7.824;2024-02-16T08:06:36;2.93;;;2.40;;
8213;SDS011;4148;47.974;7.824;2024-02-16T08:09:05;7.70;;;4.40;;
8213;SDS011;4148;47.974;7.824;2024-02-16T08:11:33;4.60;;;2.57;;
8213;SDS011;4148;47.974;7.824;2024-02-16T08:14:01;5.17;;;3.03;;
8213;SDS011;4148;47.974;7.824;2024-02-16T08:16:29;3.40;;;1.70;;
8213;SDS011;4148;47.974;7.824;2024-02-16T08:18:57;3.50;;;2.40;;
8213;SDS011;4148;47.974;7.824;2024-02-16T08:21:25;3.80;;;2.60;;
8213;SDS011;4148;47.974;7.824;2024-02-16T08:23:55;4.43;;;2.00;;
8213;SDS011;4148;47.974;7.824;2024-02-16T08:26:23;3.90;;;1.80;;
8213;SDS011;4148;47.974;7.824;2024-02-16T08:28:50;4.00;;;1.90;;
8213;SDS011;4148;47.974;7.824;2024-02-16T08:31:19;4.07;;;2.13;;
8213;SDS011;4148;47.974;7.824;2024-02-16T08:33:48;3.47;;;2.50;;
8213;SDS011;4148;47.974;7.824;2024-02-16T08:36:16;5.10;;;2.00;;
8213;SDS011;4148;47.974;7.824;2024-02-16T08:38:44;4.57;;;1.90;;
8213;SDS011;4148;47.974;7.824;2024-02-16T08:41:13;3.67;;;1.87;;
8213;SDS011;4148;47.974;7.824;2024-02-16T08:43:41;7.60;;;2.00;;
8213;SDS011;4148;47.974;7.824;2024-02-16T08:46:09;5.90;;;2.10;;
8213;SDS011;4148;47.974;7.824;2024-02-16T08:48:37;4.13;;;1.80;;
8213;SDS011;4148;47.974;7.824;2024-02-16T08:51:05;5.77;;;1.83;;
8213;SDS011;4148;47.974;7.824;2024-02-16T08:53:33;4.40;;;1.80;;
8213;SDS011;4148;47.974;7.824;2024-02-16T08:56:01;2.17;;;1.50;;
8213;SDS011;4148;47.974;7.824;2024-02-16T08:58:30;2.90;;;1.50;;
8213;SDS011;4148;47.974;7.824;2024-02-16T09:00:58;2.10;;;1.50;;
8213;SDS011;4148;47.974;7.824;2024-02-16T09:03:26;6.10;;;1.80;;
8213;SDS011;4148;47.974;7.824;2024-02-16T09:05:54;3.00;;;1.50;;
8213;SDS011;4148;47.974;7.824;2024-02-16T09:08:22;3.03;;;1.87;;
8213;SDS011;4148;47.974;7.824;2024-02-16T09:10:51;2.23;;;1.53;;
8213;SDS011;4148;47.974;7.824;2024-02-16T09:13:19;2.10;;;1.60;;
8213;SDS011;4148;47.974;7.824;2024-02-16T09:15:59;3.30;;;1.67;;
8213;SDS011;4148;47.974;7.824;2024-02-16T09:18:27;3.33;;;1.90;;
8213;SDS011;4148;47.974;7.824;2024-02-16T09:20:55;4.20;;;1.73;;
8213;SDS011;4148;47.974;7.824;2024-02-16T09:23:23;4.40;;;2.10;;
8213;SDS011;4148;47.974;7.824;2024-02-16T09:25:50;5.23;;;1.80;;
8213;SDS011;4148;47.974;7.824;2024-02-16T09:28:18;3.70;;;1.93;;
8213;SDS011;4148;47.974;7.824;2024-02-16T09:30:55;3.10;;;1.97;;
8213;SDS011;4148;47.974;7.824;2024-02-16T09:33:24;5.90;;;2.97;;
8213;SDS011;4148;47.974;7.824;2024-02-16T09:35:54;4.57;;;2.33;;
8213;SDS011;4148;47.974;7.824;2024-02-16T09:38:22;2.83;;;1.80;;
8213;SDS011;4148;47.974;7.824;2024-02-16T09:40:50;7.30;;;3.70;;
8213;SDS011;4148;47.974;7.824;2024-02-16T09:43:23;2.60;;;1.87;;
8213;SDS011;4148;47.974;7.824;2024-02-16T09:45:53;5.10;;;2.27;;
8213;SDS011;4148;47.974;7.824;2024-02-16T09:48:21;4.87;;;3.50;;
8213;SDS011;4148;47.974;7.824;2024-02-16T09:50:51;4.13;;;2.20;;
8213;SDS011;4148;47.974;7.824;2024-02-16T09:53:21;3.63;;;2.00;;
8213;SDS011;4148;47.974;7.824;2024-02-16T09:55:52;4.90;;;1.90;;
8213;SDS011;4148;47.974;7.824;2024-02-16T09:58:21;7.63;;;3.30;;
8213;SDS011;4148;47.974;7.824;2024-02-16T10:00:49;4.53;;;3.00;;
8213;SDS011;4148;47.974;7.824;2024-02-16T10:03:22;8.87;;;7.10;;
8213;SDS011;4148;47.974;7.824;2024-02-16T10:05:52;6.83;;;6.20;;
8213;SDS011;4148;47.974;7.824;2024-02-16T10:08:31;11.20;;;4.80;;
8213;SDS011;4148;47.974;7.824;2024-02-16T10:11:02;7.80;;;3.40;;
8213;SDS011;4148;47.974;7.824;2024-02-16T10:13:30;4.30;;;3.20;;
8213;SDS011;4148;47.974;7.824;2024-02-16T10:16:05;4.13;;;2.93;;
8213;SDS011;4148;47.974;7.824;2024-02-16T10:18:35;5.27;;;2.50;;
8213;SDS011;4148;47.974;7.824;2024-02-16T10:21:05;4.43;;;2.53;;
8213;SDS011;4148;47.974;7.824;2024-02-16T10:23:34;5.70;;;3.00;;
8213;SDS011;4148;47.974;7.824;2024-02-16T10:26:09;5.40;;;3.00;;
8213;SDS011;4148;47.974;7.824;2024-02-16T10:28:37;3.53;;;2.30;;
8213;SDS011;4148;47.974;7.824;2024-02-16T10:31:05;5.30;;;2.33;;
8213;SDS011;4148;47.974;7.824;2024-02-16T10:33:33;4.00;;;2.70;;
8213;SDS011;4148;47.974;7.824;2024-02-16T10:36:03;5.17;;;2.57;;
8213;SDS011;4148;47.974;7.824;2024-02-16T10:38:34;5.20;;;2.37;;
8213;SDS011;4148;47.974;7.824;2024-02-16T10:41:03;4.90;;;2.50;;
8213;SDS011;4148;47.974;7.824;2024-02-16T10:43:33;3.30;;;2.30;;
8213;SDS011;4148;47.974;7.824;2024-02-16T10:46:01;5.43;;;1.93;;
8213;SDS011;4148;47.974;7.824;2024-02-16T10:48:29;2.50;;;2.00;;
8213;SDS011;4148;47.974;7.824;2024-02-16T10:50:57;3.50;;;2.77;;
8213;SDS011;4148;47.974;7.824;2024-02-16T10:53:27;10.70;;;6.73;;
8213;SDS011;4148;47.974;7.824;2024-02-16T10:55:57;5.53;;;3.90;;
8213;SDS011;4148;47.974;7.824;2024-02-16T10:58:26;4.40;;;3.13;;
8213;SDS011;4148;47.974;7.824;2024-02-16T11:00:56;5.67;;;4.30;;
8213;SDS011;4148;47.974;7.824;2024-02-16T11:03:25;8.50;;;5.83;;
8213;SDS011;4148;47.974;7.824;2024-02-16T11:05:54;4.90;;;4.30;;
8213;SDS011;4148;47.974;7.824;2024-02-16T11:08:24;5.90;;;4.50;;
8213;SDS011;4148;47.974;7.824;2024-02-16T11:10:56;5.97;;;2.13;;
8213;SDS011;4148;47.974;7.824;2024-02-16T11:13:25;5.53;;;2.47;;
8213;SDS011;4148;47.974;7.824;2024-02-16T11:15:57;5.93;;;3.70;;
8213;SDS011;4148;47.974;7.824;2024-02-16T11:18:27;9.40;;;5.40;;
8213;SDS011;4148;47.974;7.824;2024-02-16T11:20:59;8.67;;;6.60;;
8213;SDS011;4148;47.974;7.824;2024-02-16T11:23:28;6.70;;;5.30;;
8213;SDS011;4148;47.974;7.824;2024-02-16T11:26:00;7.63;;;4.10;;
8213;SDS011;4148;47.974;7.824;2024-02-16T11:28:31;3.50;;;2.40;;
8213;SDS011;4148;47.974;7.824;2024-02-16T11:30:59;5.80;;;2.23;;
8213;SDS011;4148;47.974;7.824;2024-02-16T11:33:28;3.73;;;2.70;;
8213;SDS011;4148;47.974;7.824;2024-02-16T11:35:58;5.33;;;2.80;;
8213;SDS011;4148;47.974;7.824;2024-02-16T11:38:27;5.30;;;3.23;;
8213;SDS011;4148;47.974;7.824;2024-02-16T11:40:55;5.13;;;3.80;;
8213;SDS011;4148;47.974;7.824;2024-02-16T11:43:26;4.90;;;3.30;;
8213;SDS011;4148;47.974;7.824;2024-02-16T11:45:54;4.80;;;3.27;;
8213;SDS011;4148;47.974;7.824;2024-02-16T11:48:22;5.37;;;3.50;;
8213;SDS011;4148;47.974;7.824;2024-02-16T11:50:58;5.13;;;3.53;;
8213;SDS011;4148;47.974;7.824;2024-02-16T11:53:27;4.80;;;3.07;;
8213;SDS011;4148;47.974;7.824;2024-02-16T11:55:55;5.80;;;2.70;;
8213;SDS011;4148;47.974;7.824;2024-02-16T11:58:23;4.33;;;2.70;;
8213;SDS011;4148;47.974;7.824;2024-02-16T12:00:52;6.20;;;4.80;;
8213;SDS011;4148;47.974;7.824;2024-02-16T12:03:26;8.00;;;5.30;;
8213;SDS011;4148;47.974;7.824;2024-02-16T12:05:54;5.50;;;4.17;;
8213;SDS011;4148;47.974;7.824;2024-02-16T12:08:23;5.97;;;4.00;;
8213;SDS011;4148;47.974;7.824;2024-02-16T12:10:58;9.40;;;4.03;;
8213;SDS011;4148;47.974;7.824;2024-02-16T12:13:27;3.70;;;2.50;;
8213;SDS011;4148;47.974;7.824;2024-02-16T12:15:56;7.30;;;4.80;;
8213;SDS011;4148;47.974;7.824;2024-02-16T12:18:24;5.30;;;3.03;;
8213;SDS011;4148;47.974;7.824;2024-02-16T12:20:57;4.43;;;2.50;;
8213;SDS011;4148;47.974;7.824;2024-02-16T12:23:26;4.63;;;2.90;;
8213;SDS011;4148;47.974;7.824;2024-02-16T12:25:54;8.50;;;3.57;;
8213;SDS011;4148;47.974;7.824;2024-02-16T12:28:23;5.30;;;3.40;;
8213;SDS011;4148;47.974;7.824;2024-02-16T12:30:53;5.33;;;2.50;;
8213;SDS011;4148;47.974;7.824;2024-02-16T12:33:25;5.23;;;3.30;;
8213;SDS011;4148;47.974;7.824;2024-02-16T12:35:53;10.53;;;3.67;;
8213;SDS011;4148;47.974;7.824;2024-02-16T12:38:22;7.43;;;4.20;;
8213;SDS011;4148;47.974;7.824;2024-02-16T12:40:49;5.23;;;3.67;;
8213;SDS011;4148;47.974;7.824;2024-02-16T12:43:17;5.27;;;3.50;;
8213;SDS011;4148;47.974;7.824;2024-02-16T12:45:46;4.87;;;3.30;;
8213;SDS011;4148;47.974;7.824;2024-02-16T12:48:14;5.33;;;3.03;;
8213;SDS011;4148;47.974;7.824;2024-02-16T12:50:44;8.20;;;3.57;;
8213;SDS011;4148;47.974;7.824;2024-02-16T12:53:13;5.03;;;3.53;;
8213;SDS011;4148;47.974;7.824;2024-02-16T12:55:41;5.73;;;3.17;;
8213;SDS011;4148;47.974;7.824;2024-02-16T12:58:10;6.00;;;2.60;;
8213;SDS011;4148;47.974;7.824;2024-02-16T13:00:39;5.77;;;2.93;;
8213;SDS011;4148;47.974;7.824;2024-02-16T13:03:07;6.13;;;2.67;;
8213;SDS011;4148;47.974;7.824;2024-02-16T13:05:36;6.20;;;2.80;;
8213;SDS011;4148;47.974;7.824;2024-02-16T13:08:07;6.20;;;2.40;;
8213;SDS011;4148;47.974;7.824;2024-02-16T13:10:35;2.50;;;1.87;;
8213;SDS011;4148;47.974;7.824;2024-02-16T13:13:03;3.47;;;2.10;;
8213;SDS011;4148;47.974;7.824;2024-02-16T13:15:31;7.27;;;2.20;;
8213;SDS011;4148;47.974;7.824;2024-02-16T13:17:59;4.83;;;2.10;;
8213;SDS011;4148;47.974;7.824;2024-02-16T13:20:27;3.23;;;1.70;;
8213;SDS011;4148;47.974;7.824;2024-02-16T13:22:55;6.23;;;2.03;;
8213;SDS011;4148;47.974;7.824;2024-02-16T13:25:24;6.40;;;2.17;;
8213;SDS011;4148;47.974;7.824;2024-02-16T13:27:52;3.90;;;1.90;;
8213;SDS011;4148;47.974;7.824;2024-02-16T13:30:19;3.80;;;2.13;;
8213;SDS011;4148;47.974;7.824;2024-02-16T13:32:47;2.80;;;1.67;;
8213;SDS011;4148;47.974;7.824;2024-02-16T13:35:15;3.30;;;1.93;;
8213;SDS011;4148;47.974;7.824;2024-02-16T13:37:47;4.53;;;2.30;;
8213;SDS011;4148;47.974;7.824;2024-02-16T13:40:15;3.57;;;1.77;;
8213;SDS011;4148;47.974;7.824;2024-02-16T13:42:45;3.30;;;1.67;;
8213;SDS011;4148;47.974;7.824;2024-02-16T13:45:14;2.90;;;1.80;;
8213;SDS011;4148;47.974;7.824;2024-02-16T13:47:42;2.97;;;1.80;;
8213;SDS011;4148;47.974;7.824;2024-02-16T13:50:10;3.73;;;1.87;;
8213;SDS011;4148;47.974;7.824;2024-02-16T13:52:38;4.20;;;1.70;;
8213;SDS011;4148;47.974;7.824;2024-02-16T13:55:06;2.97;;;1.90;;
8213;SDS011;4148;47.974;7.824;2024-02-16T13:57:34;2.90;;;1.70;;
8213;SDS011;4148;47.974;7.824;2024-02-16T14:00:07;3.03;;;1.93;;
8213;SDS011;4148;47.974;7.824;2024-02-16T14:02:36;3.70;;;1.90;;
8213;SDS011;4148;47.974;7.824;2024-02-16T14:05:04;2.63;;;1.77;;
8213;SDS011;4148;47.974;7.824;2024-02-16T14:07:32;3.60;;;1.70;;
8213;SDS011;4148;47.974;7.824;2024-02-16T14:10:11;4.43;;;1.73;;
8213;SDS011;4148;47.974;7.824;2024-02-16T14:12:39;3.13;;;2.00;;
8213;SDS011;4148;47.974;7.824;2024-02-16T14:15:09;4.97;;;1.70;;
8213;SDS011;4148;47.974;7.824;2024-02-16T14:17:42;4.20;;;2.00;;
8213;SDS011;4148;47.974;7.824;2024-02-16T14:20:10;4.63;;;2.20;;
8213;SDS011;4148;47.974;7.824;2024-02-16T14:22:38;6.70;;;2.20;;
8213;SDS011;4148;47.974;7.824;2024-02-16T14:25:06;2.20;;;1.80;;
8213;SDS011;4148;47.974;7.824;2024-02-16T14:27:36;3.60;;;1.97;;
8213;SDS011;4148;47.974;7.824;2024-02-16T14:30:05;4.27;;;2.23;;
8213;SDS011;4148;47.974;7.824;2024-02-16T14:32:35;5.10;;;2.00;;
8213;SDS011;4148;47.974;7.824;2024-02-16T14:35:03;3.90;;;1.90;;
8213;SDS011;4148;47.974;7.824;2024-02-16T14:37:32;3.97;;;2.20;;
8213;SDS011;4148;47.974;7.824;2024-02-16T14:40:00;5.23;;;1.80;;
8213;SDS011;4148;47.974;7.824;2024-02-16T14:42:30;3.07;;;1.87;;
8213;SDS011;4148;47.974;7.824;2024-02-16T14:44:58;4.20;;;2.27;;
8213;SDS011;4148;47.974;7.824;2024-02-16T14:47:26;4.63;;;2.30;;
8213;SDS011;4148;47.974;7.824;2024-02-16T14:49:55;3.40;;;2.37;;
8213;SDS011;4148;47.974;7.824;2024-02-16T14:52:23;3.97;;;2.10;;
8213;SDS011;4148;47.974;7.824;2024-02-16T14:54:51;5.57;;;2.37;;
8213;SDS011;4148;47.974;7.824;2024-02-16T14:57:19;3.77;;;2.10;;
8213;SDS011;4148;47.974;7.824;2024-02-16T14:59:49;6.50;;;2.50;;
8213;SDS011;4148;47.974;7.824;2024-02-16T15:02:18;3.20;;;2.07;;
8213;SDS011;4148;47.974;7.824;2024-02-16T15:04:47;3.43;;;1.80;;
8213;SDS011;4148;47.974;7.824;2024-02-16T15:07:17;3.47;;;1.70;;
8213;SDS011;4148;47.974;7.824;2024-02-16T15:09:45;4.30;;;1.90;;
8213;SDS011;4148;47.974;7.824;2024-02-16T15:12:13;5.50;;;2.10;;
8213;SDS011;4148;47.974;7.824;2024-02-16T15:14:45;4.70;;;2.17;;
8213;SDS011;4148;47.974;7.824;2024-02-16T15:17:14;3.50;;;2.20;;
8213;SDS011;4148;47.974;7.824;2024-02-16T15:19:42;3.80;;;2.00;;
8213;SDS011;4148;47.974;7.824;2024-02-16T15:22:10;3.77;;;2.37;;
8213;SDS011;4148;47.974;7.824;2024-02-16T15:24:39;5.30;;;2.07;;